createdAt,value
2019-03-17T00:02:05.216Z,11.40
2019-03-17T00:04:32.055Z,11.30
2019-03-17T00:06:58.590Z,11.40
2019-03-17T00:09:25.600Z,11.30
2019-03-17T00:11:52.199Z,11.80
2019-03-17T00:14:18.835Z,11.60
2019-03-17T00:16:45.408Z,11.70
2019-03-17T00:19:11.997Z,11.90
2019-03-17T00:21:39.024Z,11.80
2019-03-17T00:24:05.784Z,11.70
2019-03-17T00:26:32.275Z,11.80
2019-03-17T00:28:58.854Z,11.70
2019-03-17T00:31:25.646Z,11.90
2019-03-17T00:33:52.579Z,11.90
2019-03-17T00:36:19.332Z,11.80
2019-03-17T00:38:45.821Z,11.90
2019-03-17T00:41:12.495Z,11.80
2019-03-17T00:43:39.065Z,11.60
2019-03-17T00:46:05.524Z,12.10
2019-03-17T00:48:32.020Z,11.80
2019-03-17T00:50:58.584Z,11.70
2019-03-17T00:53:25.569Z,11.80
2019-03-17T00:55:52.248Z,11.70
2019-03-17T00:58:19.231Z,12.20
2019-03-17T01:00:46.020Z,11.60
2019-03-17T01:03:12.690Z,11.70
2019-03-17T01:05:39.166Z,12.20
2019-03-17T01:08:05.815Z,11.90
2019-03-17T01:10:32.392Z,11.70
2019-03-17T01:12:58.962Z,11.80
2019-03-17T01:15:25.542Z,11.80
2019-03-17T01:17:52.265Z,11.80
2019-03-17T01:20:18.944Z,11.90
2019-03-17T01:22:45.867Z,12.10
2019-03-17T01:25:12.581Z,11.70
2019-03-17T01:27:39.117Z,11.80
2019-03-17T01:30:10.487Z,12.20
2019-03-17T01:32:37.052Z,12.00
2019-03-17T01:35:09.436Z,11.80
2019-03-17T01:37:34.095Z,11.80
2019-03-17T01:40:00.826Z,11.60
2019-03-17T01:42:27.797Z,11.70
2019-03-17T01:44:54.550Z,11.70
2019-03-17T01:47:21.050Z,11.70
2019-03-17T01:49:48.388Z,11.70
2019-03-17T01:52:14.954Z,11.60
2019-03-17T01:54:41.542Z,11.90
2019-03-17T01:57:08.047Z,11.70
2019-03-17T01:59:34.596Z,11.70
2019-03-17T02:02:01.088Z,11.80
2019-03-17T02:04:27.563Z,11.60
2019-03-17T02:06:54.464Z,11.80
2019-03-17T02:09:20.932Z,11.60
2019-03-17T02:11:47.436Z,11.80
2019-03-17T02:14:13.922Z,11.80
2019-03-17T02:16:40.810Z,11.70
2019-03-17T02:19:07.268Z,11.80
2019-03-17T02:21:34.292Z,11.30
2019-03-17T02:24:01.141Z,11.80
2019-03-17T02:26:27.980Z,11.80
2019-03-17T02:28:54.435Z,11.30
2019-03-17T02:31:20.896Z,11.40
2019-03-17T02:33:47.381Z,11.60
2019-03-17T02:36:13.875Z,11.60
2019-03-17T02:38:40.477Z,11.60
2019-03-17T02:41:06.932Z,11.70
2019-03-17T02:43:33.473Z,11.70
2019-03-17T02:46:02.749Z,11.80
2019-03-17T02:48:28.392Z,11.40
2019-03-17T02:50:54.963Z,11.30
2019-03-17T02:53:21.410Z,11.40
2019-03-17T02:55:48.102Z,11.30
2019-03-17T02:58:14.570Z,11.40
2019-03-17T03:00:41.064Z,11.60
2019-03-17T03:03:07.618Z,11.30
2019-03-17T03:05:34.704Z,11.20
2019-03-17T03:08:01.248Z,11.30
2019-03-17T03:10:31.433Z,11.20
2019-03-17T03:12:56.087Z,11.40
2019-03-17T03:15:22.689Z,11.20
2019-03-17T03:17:49.130Z,11.40
2019-03-17T03:20:15.970Z,11.30
2019-03-17T03:22:42.713Z,11.50
2019-03-17T03:25:09.760Z,11.40
2019-03-17T03:27:36.175Z,11.40
2019-03-17T03:30:11.210Z,11.30
2019-03-17T03:32:37.975Z,11.30
2019-03-17T03:35:07.177Z,11.40
2019-03-17T03:37:33.667Z,11.40
2019-03-17T03:40:00.135Z,11.30
2019-03-17T03:42:27.085Z,11.40
2019-03-17T03:44:53.533Z,11.20
2019-03-17T03:47:20.005Z,11.40
2019-03-17T03:49:46.551Z,11.10
2019-03-17T03:52:12.923Z,11.40
2019-03-17T03:54:39.373Z,11.20
2019-03-17T03:57:05.961Z,11.30
2019-03-17T03:59:32.409Z,11.40
2019-03-17T04:01:59.084Z,11.40
2019-03-17T04:04:25.780Z,11.20
2019-03-17T04:06:52.845Z,11.20
2019-03-17T04:09:19.494Z,11.40
2019-03-17T04:11:46.133Z,11.20
2019-03-17T04:14:12.705Z,11.20
2019-03-17T04:16:39.225Z,11.30
2019-03-17T04:19:05.810Z,11.30
2019-03-17T04:21:32.358Z,11.20
2019-03-17T04:23:58.947Z,11.40
2019-03-17T04:26:25.481Z,10.80
2019-03-17T04:28:51.951Z,10.90
2019-03-17T04:31:18.399Z,10.90
2019-03-17T04:33:44.867Z,10.80
2019-03-17T04:36:11.312Z,11.40
2019-03-17T04:38:37.803Z,10.90
2019-03-17T04:41:04.552Z,10.80
2019-03-17T04:43:31.195Z,11.00
2019-03-17T04:45:57.596Z,10.90
2019-03-17T04:48:24.076Z,10.90
2019-03-17T04:50:50.524Z,10.90
2019-03-17T04:53:17.004Z,10.90
2019-03-17T04:55:43.871Z,10.90
2019-03-17T04:58:10.319Z,10.80
2019-03-17T05:00:37.252Z,11.00
2019-03-17T05:03:03.987Z,11.00
2019-03-17T05:05:30.561Z,10.90
2019-03-17T05:07:57.208Z,10.90
2019-03-17T05:10:23.666Z,10.90
2019-03-17T05:12:50.115Z,10.80
2019-03-17T05:15:16.587Z,10.70
2019-03-17T05:17:43.032Z,10.90
2019-03-17T05:20:09.808Z,10.90
2019-03-17T05:22:36.679Z,10.90
2019-03-17T05:25:05.120Z,10.70
2019-03-17T05:27:31.503Z,10.90
2019-03-17T05:29:57.968Z,10.90
2019-03-17T05:32:24.425Z,10.80
2019-03-17T05:34:50.988Z,11.00
2019-03-17T05:37:17.468Z,10.80
2019-03-17T05:39:44.281Z,10.90
2019-03-17T05:42:10.874Z,11.00
2019-03-17T05:44:37.313Z,11.00
2019-03-17T05:47:04.095Z,10.90
2019-03-17T05:49:30.446Z,10.80
2019-03-17T05:51:56.813Z,10.80
2019-03-17T05:54:23.268Z,10.80
2019-03-17T05:56:49.754Z,10.90
2019-03-17T05:59:16.225Z,10.40
2019-03-17T06:01:42.903Z,10.60
2019-03-17T06:04:09.343Z,10.40
2019-03-17T06:06:36.180Z,10.50
2019-03-17T06:09:05.443Z,10.10
2019-03-17T06:11:32.211Z,10.20
2019-03-17T06:13:58.596Z,10.10
2019-03-17T06:16:25.053Z,9.60
2019-03-17T06:18:51.529Z,9.80
2019-03-17T06:21:17.945Z,9.60
2019-03-17T06:23:44.557Z,9.80
2019-03-17T06:26:11.119Z,9.50
2019-03-17T06:28:37.600Z,9.80
2019-03-17T06:31:04.098Z,9.50
2019-03-17T06:33:30.685Z,9.40
2019-03-17T06:35:57.269Z,9.40
2019-03-17T06:38:23.964Z,9.30
2019-03-17T06:40:50.552Z,9.20
2019-03-17T06:43:17.037Z,9.10
2019-03-17T06:45:43.642Z,9.00
2019-03-17T06:48:10.101Z,9.00
2019-03-17T06:50:36.895Z,8.90
2019-03-17T06:53:03.576Z,9.00
2019-03-17T06:55:30.161Z,8.90
2019-03-17T06:57:56.623Z,9.00
2019-03-17T07:00:23.096Z,9.10
2019-03-17T07:02:49.562Z,8.80
2019-03-17T07:05:16.313Z,8.80
2019-03-17T07:07:44.210Z,9.10
2019-03-17T07:10:11.182Z,8.90
2019-03-17T07:12:38.285Z,9.10
2019-03-17T07:15:07.799Z,9.10
2019-03-17T07:17:34.353Z,8.90
2019-03-17T07:20:00.934Z,9.10
2019-03-17T07:22:27.505Z,9.10
2019-03-17T07:24:54.065Z,8.80
2019-03-17T07:27:20.680Z,9.10
2019-03-17T07:29:49.432Z,8.80
2019-03-17T07:32:15.668Z,8.80
2019-03-17T07:34:42.128Z,9.00
2019-03-17T07:37:08.999Z,9.10
2019-03-17T07:39:35.432Z,8.80
2019-03-17T07:42:01.918Z,8.80
2019-03-17T07:44:28.488Z,9.00
2019-03-17T07:46:55.076Z,8.80
2019-03-17T07:49:21.513Z,8.80
2019-03-17T07:51:48.296Z,8.80
2019-03-17T07:54:15.331Z,8.50
2019-03-17T07:56:41.900Z,8.20
2019-03-17T07:59:08.376Z,8.20
2019-03-17T08:01:35.053Z,8.10
2019-03-17T08:04:01.901Z,8.10
2019-03-17T08:06:28.324Z,8.40
2019-03-17T08:08:55.125Z,8.20
2019-03-17T08:11:21.609Z,8.10
2019-03-17T08:13:48.093Z,7.70
2019-03-17T08:16:15.116Z,8.20
2019-03-17T08:18:41.767Z,8.10
2019-03-17T08:21:08.470Z,8.30
2019-03-17T08:23:35.001Z,8.30
2019-03-17T08:26:01.466Z,8.30
2019-03-17T08:28:28.064Z,8.50
2019-03-17T08:30:54.615Z,8.40
2019-03-17T08:33:21.101Z,8.20
2019-03-17T08:35:47.652Z,8.20
2019-03-17T08:38:21.732Z,8.60
2019-03-17T08:40:44.768Z,8.70
2019-03-17T08:43:11.476Z,8.70
2019-03-17T08:45:37.950Z,8.70
2019-03-17T08:48:04.421Z,8.60
2019-03-17T08:50:30.994Z,8.50
2019-03-17T08:52:57.657Z,9.10
2019-03-17T08:55:24.340Z,8.60
2019-03-17T08:57:50.996Z,8.60
2019-03-17T09:00:18.968Z,9.10
2019-03-17T09:02:45.629Z,9.00
2019-03-17T09:05:12.529Z,9.00
2019-03-17T09:07:38.896Z,9.30
2019-03-17T09:10:09.292Z,9.00
2019-03-17T09:12:35.777Z,9.10
2019-03-17T09:15:04.018Z,8.80
2019-03-17T09:17:30.488Z,9.40
2019-03-17T09:19:56.969Z,9.20
2019-03-17T09:22:23.435Z,9.40
2019-03-17T09:24:50.063Z,8.90
2019-03-17T09:27:16.626Z,9.30
2019-03-17T09:29:43.085Z,9.00
2019-03-17T09:32:09.755Z,8.90
2019-03-17T09:34:36.248Z,9.50
2019-03-17T09:37:02.926Z,9.50
2019-03-17T09:39:29.388Z,9.50
2019-03-17T09:41:56.320Z,9.80
2019-03-17T09:44:22.702Z,9.90
2019-03-17T09:46:49.501Z,10.10
2019-03-17T09:49:16.256Z,10.20
2019-03-17T09:51:43.186Z,10.60
2019-03-17T09:54:10.128Z,11.00
2019-03-17T09:56:36.600Z,11.00
2019-03-17T09:59:03.247Z,11.30
2019-03-17T10:01:30.122Z,11.60
2019-03-17T10:03:58.512Z,11.70
2019-03-17T10:06:25.166Z,11.30
2019-03-17T10:08:59.816Z,10.90
2019-03-17T10:11:20.390Z,10.90
2019-03-17T10:13:47.227Z,10.60
2019-03-17T10:16:13.968Z,10.50
2019-03-17T10:18:40.930Z,10.50
2019-03-17T10:21:07.583Z,10.80
2019-03-17T10:23:34.096Z,10.80
2019-03-17T10:26:00.542Z,10.90
2019-03-17T10:28:27.469Z,10.50
2019-03-17T10:30:54.015Z,10.80
2019-03-17T10:33:20.506Z,10.80
2019-03-17T10:35:46.959Z,10.50
2019-03-17T10:38:13.433Z,10.40
2019-03-17T10:40:39.883Z,10.50
2019-03-17T10:43:06.523Z,10.60
2019-03-17T10:45:33.009Z,10.50
2019-03-17T10:47:59.468Z,10.60
2019-03-17T10:50:25.927Z,10.40
2019-03-17T10:52:52.373Z,10.40
2019-03-17T10:55:18.750Z,10.50
2019-03-17T10:57:45.384Z,10.50
2019-03-17T11:00:17.909Z,10.90
2019-03-17T11:02:44.460Z,10.80
2019-03-17T11:05:11.135Z,11.30
2019-03-17T11:07:37.589Z,11.30
2019-03-17T11:10:07.179Z,11.70
2019-03-17T11:12:33.756Z,11.80
2019-03-17T11:15:00.393Z,12.10
2019-03-17T11:17:26.784Z,11.80
2019-03-17T11:19:53.531Z,11.60
2019-03-17T11:22:20.092Z,11.30
2019-03-17T11:24:46.604Z,11.70
2019-03-17T11:27:13.181Z,13.30
2019-03-17T11:29:39.656Z,13.90
2019-03-17T11:32:06.819Z,14.30
2019-03-17T11:34:33.289Z,14.40
2019-03-17T11:36:59.782Z,15.20
2019-03-17T11:39:37.319Z,15.00
2019-03-17T11:41:54.978Z,14.40
2019-03-17T11:44:22.042Z,15.60
2019-03-17T11:46:48.587Z,14.90
2019-03-17T11:49:15.545Z,14.40
2019-03-17T11:51:42.245Z,13.90
2019-03-17T11:54:08.926Z,13.70
2019-03-17T11:56:35.603Z,13.70
2019-03-17T11:59:02.608Z,13.40
2019-03-17T12:01:29.059Z,14.20
2019-03-17T12:03:55.455Z,14.60
2019-03-17T12:06:22.020Z,14.00
2019-03-17T12:08:48.603Z,13.80
2019-03-17T12:11:15.171Z,13.80
2019-03-17T12:13:41.924Z,14.70
2019-03-17T12:16:08.872Z,14.30
2019-03-17T12:18:35.324Z,13.60
2019-03-17T12:21:01.815Z,13.70
2019-03-17T12:23:28.305Z,14.40
2019-03-17T12:25:54.968Z,14.60
2019-03-17T12:28:21.857Z,14.30
2019-03-17T12:30:48.601Z,14.90
2019-03-17T12:33:15.055Z,15.20
2019-03-17T12:35:41.623Z,15.70
2019-03-17T12:38:08.517Z,15.40
2019-03-17T12:40:35.560Z,14.40
2019-03-17T12:43:02.114Z,14.20
2019-03-17T12:45:28.583Z,12.80
2019-03-17T12:47:55.135Z,12.10
2019-03-17T12:50:23.759Z,11.90
2019-03-17T12:52:50.701Z,12.40
2019-03-17T12:55:17.659Z,13.40
2019-03-17T12:57:44.235Z,14.20
2019-03-17T13:00:16.450Z,13.80
2019-03-17T13:02:43.147Z,14.40
2019-03-17T13:05:10.625Z,14.30
2019-03-17T13:07:37.245Z,14.40
2019-03-17T13:10:15.554Z,14.90
2019-03-17T13:12:35.792Z,14.90
2019-03-17T13:15:03.948Z,14.40
2019-03-17T13:17:30.904Z,14.70
2019-03-17T13:19:57.358Z,13.40
2019-03-17T13:22:24.291Z,13.20
2019-03-17T13:24:51.228Z,12.80
2019-03-17T13:27:17.717Z,13.70
2019-03-17T13:29:44.263Z,14.50
2019-03-17T13:32:11.043Z,15.20
2019-03-17T13:34:37.711Z,13.90
2019-03-17T13:37:04.221Z,13.20
2019-03-17T13:39:30.673Z,14.00
2019-03-17T13:41:57.138Z,13.80
2019-03-17T13:44:24.031Z,12.70
2019-03-17T13:46:50.598Z,11.80
2019-03-17T13:49:17.406Z,11.80
2019-03-17T13:51:43.866Z,11.30
2019-03-17T13:54:10.328Z,11.40
2019-03-17T13:56:36.879Z,10.90
2019-03-17T13:59:06.226Z,11.10
2019-03-17T14:01:31.614Z,11.70
2019-03-17T14:03:58.083Z,12.90
2019-03-17T14:06:24.548Z,13.90
2019-03-17T14:08:51.032Z,14.10
2019-03-17T14:11:17.475Z,14.20
2019-03-17T14:13:43.865Z,13.80
2019-03-17T14:16:10.308Z,13.70
2019-03-17T14:18:36.687Z,13.80
2019-03-17T14:21:03.337Z,14.10
2019-03-17T14:23:29.796Z,13.40
2019-03-17T14:25:56.299Z,13.40
2019-03-17T14:28:22.851Z,13.30
2019-03-17T14:30:49.644Z,12.80
2019-03-17T14:33:16.103Z,12.20
2019-03-17T14:35:42.671Z,11.90
2019-03-17T14:38:09.024Z,11.70
2019-03-17T14:40:35.808Z,11.60
2019-03-17T14:43:02.948Z,11.40
2019-03-17T14:45:29.510Z,11.20
2019-03-17T14:47:55.951Z,11.30
2019-03-17T14:50:23.320Z,11.50
2019-03-17T14:52:49.988Z,11.30
2019-03-17T14:55:16.652Z,11.30
2019-03-17T14:57:43.332Z,11.00
2019-03-17T15:00:16.231Z,11.20
2019-03-17T15:02:43.367Z,11.20
2019-03-17T15:05:10.009Z,10.70
2019-03-17T15:07:36.576Z,10.50
2019-03-17T15:10:06.844Z,10.50
2019-03-17T15:12:33.243Z,10.00
2019-03-17T15:14:59.688Z,10.00
2019-03-17T15:17:26.242Z,9.80
2019-03-17T15:19:52.736Z,9.60
2019-03-17T15:22:19.445Z,8.80
2019-03-17T15:24:46.334Z,7.90
2019-03-17T15:27:12.888Z,7.80
2019-03-17T15:29:39.492Z,7.80
2019-03-17T15:32:06.045Z,7.70
2019-03-17T15:34:32.995Z,7.60
2019-03-17T15:36:59.550Z,7.50
2019-03-17T15:39:26.115Z,7.90
2019-03-17T15:41:52.678Z,8.00
2019-03-17T15:44:19.240Z,8.40
2019-03-17T15:46:45.909Z,8.80
2019-03-17T15:49:12.499Z,9.00
2019-03-17T15:51:38.960Z,9.50
2019-03-17T15:54:05.395Z,9.40
2019-03-17T15:56:31.797Z,9.50
2019-03-17T15:58:58.252Z,9.40
2019-03-17T16:01:24.716Z,8.80
2019-03-17T16:03:51.531Z,8.70
2019-03-17T16:06:19.024Z,8.60
2019-03-17T16:08:45.593Z,8.70
2019-03-17T16:11:12.370Z,8.80
2019-03-17T16:13:38.932Z,8.70
2019-03-17T16:16:05.409Z,8.70
2019-03-17T16:18:31.884Z,8.60
2019-03-17T16:20:58.335Z,8.60
2019-03-17T16:23:24.836Z,8.40
2019-03-17T16:25:51.289Z,8.20
2019-03-17T16:28:17.864Z,8.50
2019-03-17T16:30:44.591Z,8.30
2019-03-17T16:33:11.070Z,8.40
2019-03-17T16:35:37.759Z,8.50
2019-03-17T16:38:04.996Z,8.40
2019-03-17T16:40:32.958Z,8.60
2019-03-17T16:42:59.412Z,8.20
2019-03-17T16:45:26.221Z,8.50
2019-03-17T16:47:52.982Z,8.10
2019-03-17T16:50:20.825Z,8.30
2019-03-17T16:52:47.490Z,8.50
2019-03-17T16:55:14.416Z,8.40
2019-03-17T16:57:41.264Z,8.10
2019-03-17T17:00:21.070Z,8.20
2019-03-17T17:02:48.181Z,8.40
2019-03-17T17:05:18.991Z,8.30
2019-03-17T17:07:45.525Z,8.30
2019-03-17T17:10:14.195Z,8.40
2019-03-17T17:12:40.747Z,8.00
2019-03-17T17:15:16.871Z,7.80
2019-03-17T17:17:43.335Z,8.10
2019-03-17T17:20:15.815Z,8.00
2019-03-17T17:22:42.387Z,7.60
2019-03-17T17:25:10.525Z,7.60
2019-03-17T17:27:36.983Z,7.40
2019-03-17T17:30:06.636Z,7.70
2019-03-17T17:32:33.325Z,7.80
2019-03-17T17:35:00.045Z,8.10
2019-03-17T17:37:26.512Z,8.00
2019-03-17T17:39:52.960Z,7.90
2019-03-17T17:42:19.755Z,8.00
2019-03-17T17:44:46.195Z,7.80
2019-03-17T17:47:12.773Z,7.60
2019-03-17T17:49:39.219Z,7.50
2019-03-17T17:52:05.575Z,7.60
2019-03-17T17:54:32.032Z,7.50
2019-03-17T17:56:58.380Z,7.70
2019-03-17T17:59:25.111Z,7.70
2019-03-17T18:01:51.626Z,7.60
2019-03-17T18:04:18.375Z,7.50
2019-03-17T18:06:44.818Z,7.50
2019-03-17T18:09:11.278Z,7.40
2019-03-17T18:11:37.644Z,7.30
2019-03-17T18:14:04.197Z,7.40
2019-03-17T18:16:30.681Z,7.30
2019-03-17T18:18:57.135Z,6.80
2019-03-17T18:21:23.621Z,6.80
2019-03-17T18:23:50.057Z,5.90
2019-03-17T18:26:16.883Z,5.10
2019-03-17T18:28:43.734Z,4.80
2019-03-17T18:31:10.221Z,4.50
2019-03-17T18:33:37.112Z,4.20
2019-03-17T18:36:03.622Z,4.50
2019-03-17T18:38:30.053Z,4.40
2019-03-17T18:40:56.924Z,4.20
2019-03-17T18:43:23.451Z,4.80
2019-03-17T18:45:50.206Z,4.40
2019-03-17T18:48:16.778Z,4.20
2019-03-17T18:50:43.312Z,4.50
2019-03-17T18:53:09.890Z,4.30
2019-03-17T18:55:36.645Z,4.30
2019-03-17T18:58:03.419Z,4.20
2019-03-17T19:00:29.868Z,4.70
2019-03-17T19:02:56.336Z,4.70
2019-03-17T19:05:22.825Z,4.60
2019-03-17T19:07:49.718Z,4.80
2019-03-17T19:10:18.663Z,4.50
2019-03-17T19:12:46.314Z,4.60
2019-03-17T19:15:17.974Z,4.80
2019-03-17T19:17:44.402Z,4.60
2019-03-17T19:20:13.944Z,4.80
2019-03-17T19:22:40.624Z,4.70
2019-03-17T19:25:10.239Z,4.90
2019-03-17T19:27:36.588Z,4.40
2019-03-17T19:30:06.793Z,4.60
2019-03-17T19:32:33.232Z,4.60
2019-03-17T19:34:59.609Z,4.50
2019-03-17T19:37:26.072Z,4.50
2019-03-17T19:39:52.584Z,4.50
2019-03-17T19:42:19.028Z,4.70
2019-03-17T19:44:45.571Z,4.60
2019-03-17T19:47:20.342Z,4.60
2019-03-17T19:49:46.868Z,4.40
2019-03-17T19:52:13.238Z,4.50
2019-03-17T19:54:39.688Z,4.60
2019-03-17T19:57:26.007Z,4.40
2019-03-17T19:59:52.360Z,4.60
2019-03-17T20:02:18.836Z,4.60
2019-03-17T20:04:45.285Z,4.50
2019-03-17T20:07:11.754Z,4.40
2019-03-17T20:09:38.406Z,4.40
2019-03-17T20:12:05.141Z,4.70
2019-03-17T20:14:31.595Z,4.60
2019-03-17T20:16:58.059Z,4.60
2019-03-17T20:19:24.433Z,4.50
2019-03-17T20:21:50.919Z,4.60
2019-03-17T20:24:17.369Z,4.50
2019-03-17T20:26:43.748Z,4.40
2019-03-17T20:29:10.187Z,4.40
2019-03-17T20:31:36.538Z,4.40
2019-03-17T20:34:03.099Z,4.60
2019-03-17T20:36:29.552Z,4.40
2019-03-17T20:38:56.036Z,4.50
2019-03-17T20:41:22.487Z,4.60
2019-03-17T20:43:48.960Z,4.50
2019-03-17T20:46:15.509Z,4.60
2019-03-17T20:48:42.081Z,4.60
2019-03-17T20:51:08.522Z,4.50
2019-03-17T20:53:34.897Z,4.50
2019-03-17T20:56:01.357Z,4.60
2019-03-17T20:58:27.828Z,4.50
2019-03-17T21:00:54.171Z,4.40
2019-03-17T21:03:21.020Z,4.50
2019-03-17T21:05:47.396Z,4.40
2019-03-17T21:08:13.837Z,4.60
2019-03-17T21:10:40.421Z,4.60
2019-03-17T21:13:06.868Z,4.50
2019-03-17T21:15:33.353Z,4.40
2019-03-17T21:17:59.903Z,4.90
2019-03-17T21:20:26.275Z,4.80
2019-03-17T21:22:52.744Z,4.70
2019-03-17T21:25:19.403Z,4.90
2019-03-17T21:27:45.969Z,4.80
2019-03-17T21:30:21.380Z,4.90
2019-03-17T21:32:47.945Z,4.70
2019-03-17T21:35:14.508Z,4.90
2019-03-17T21:37:41.072Z,4.70
2019-03-17T21:40:09.733Z,5.00
2019-03-17T21:42:36.596Z,4.90
2019-03-17T21:45:04.848Z,4.70
2019-03-17T21:47:31.344Z,5.00
2019-03-17T21:49:57.791Z,5.20
2019-03-17T21:52:24.351Z,4.90
2019-03-17T21:54:50.728Z,5.00
2019-03-17T21:57:17.463Z,5.20
2019-03-17T21:59:43.928Z,5.20
2019-03-17T22:02:13.043Z,5.20
2019-03-17T22:04:39.209Z,5.60
2019-03-17T22:07:05.874Z,5.40
2019-03-17T22:09:32.627Z,5.30
2019-03-17T22:11:59.300Z,5.20
2019-03-17T22:14:25.901Z,5.10
2019-03-17T22:16:52.413Z,5.20
2019-03-17T22:19:19.245Z,4.90
2019-03-17T22:21:45.711Z,4.70
2019-03-17T22:24:12.084Z,4.70
2019-03-17T22:26:38.477Z,4.80
2019-03-17T22:29:05.092Z,4.90
2019-03-17T22:31:31.933Z,5.00
2019-03-17T22:33:58.368Z,5.20
2019-03-17T22:36:24.759Z,5.00
2019-03-17T22:38:51.448Z,5.10
2019-03-17T22:41:18.273Z,5.00
2019-03-17T22:43:44.640Z,5.10
2019-03-17T22:46:11.320Z,5.20
2019-03-17T22:48:37.678Z,5.00
2019-03-17T22:51:04.626Z,5.00
2019-03-17T22:53:31.067Z,5.30
2019-03-17T22:55:57.513Z,5.10
2019-03-17T22:58:24.344Z,5.10
2019-03-17T23:00:51.197Z,4.90
2019-03-17T23:03:17.805Z,5.00
2019-03-17T23:05:44.647Z,5.20
2019-03-17T23:08:11.218Z,5.20
2019-03-17T23:10:38.145Z,5.10
2019-03-17T23:13:05.023Z,4.70
2019-03-17T23:15:31.965Z,4.80
2019-03-17T23:17:59.040Z,4.80
2019-03-17T23:20:26.133Z,5.00
2019-03-17T23:22:52.911Z,5.10
2019-03-17T23:25:19.501Z,4.80
2019-03-17T23:27:46.151Z,4.90
2019-03-17T23:30:21.419Z,4.70
2019-03-17T23:32:49.605Z,4.90
2019-03-17T23:35:17.153Z,5.00
2019-03-17T23:37:44.481Z,4.80
2019-03-17T23:40:12.756Z,4.90
2019-03-17T23:42:39.807Z,4.80
2019-03-17T23:45:08.399Z,4.80
2019-03-17T23:47:35.248Z,4.70
2019-03-17T23:50:03.212Z,5.00
2019-03-17T23:52:30.244Z,4.80
2019-03-17T23:54:57.089Z,4.70
2019-03-17T23:57:23.952Z,4.70
2019-03-17T23:59:51.794Z,4.80
